Time;durP1;ratioP1;P1;durP2;ratioP2;P2;SDS_P1;SDS_P2;PMS_P1;PMS_P2;Temp;Humidity;BMP_temperature;BMP_pressure;BME280_temperature;BME280_humidity;BME280_pressure;Samples;Min_cycle;Max_cycle;Signal;HPM_P1;HPM_P2
2023/02/17 00:00:52;;;;;;;36.23;21.63;;;;;;;;;;4993831;28;20427;-45
2023/02/17 00:03:18;;;;;;;34.23;20.43;;;;;;;;;;4996112;28;20426;-47
2023/02/17 00:05:44;;;;;;;33.63;21.40;;;;;;;;;;4995597;28;20749;-48
2023/02/17 00:08:10;;;;;;;39.60;22.57;;;;;;;;;;4994378;28;20418;-46
2023/02/17 00:10:36;;;;;;;38.20;20.60;;;;;;;;;;4995606;28;20810;-48
2023/02/17 00:13:02;;;;;;;39.67;21.53;;;;;;;;;;4994000;28;20462;-46
2023/02/17 00:15:28;;;;;;;35.40;21.27;;;;;;;;;;4995494;28;20422;-46
2023/02/17 00:17:54;;;;;;;32.33;19.73;;;;;;;;;;4994111;28;20415;-46
2023/02/17 00:20:20;;;;;;;36.43;20.70;;;;;;;;;;4993511;28;20444;-46
2023/02/17 00:22:46;;;;;;;29.63;19.83;;;;;;;;;;4993890;28;20427;-47
2023/02/17 00:25:12;;;;;;;35.40;21.83;;;;;;;;;;4995364;28;20491;-48
2023/02/17 00:27:38;;;;;;;40.07;21.63;;;;;;;;;;4993769;28;20765;-49
2023/02/17 00:30:04;;;;;;;30.40;19.30;;;;;;;;;;4995313;28;20870;-46
2023/02/17 00:32:30;;;;;;;31.07;20.27;;;;;;;;;;4994871;28;20467;-46
2023/02/17 00:34:57;;;;;;;32.07;19.50;;;;;;;;;;4994904;28;20485;-47
2023/02/17 00:37:23;;;;;;;29.33;19.23;;;;;;;;;;4994631;28;20415;-48
2023/02/17 00:39:49;;;;;;;34.27;19.90;;;;;;;;;;4995026;28;20489;-48
2023/02/17 00:42:15;;;;;;;32.07;20.03;;;;;;;;;;4995148;28;20418;-48
2023/02/17 00:44:41;;;;;;;27.47;18.60;;;;;;;;;;4995403;28;20421;-48
2023/02/17 00:47:07;;;;;;;36.93;20.27;;;;;;;;;;4994256;28;20523;-46
2023/02/17 00:49:33;;;;;;;30.87;17.87;;;;;;;;;;4995164;28;20934;-46
2023/02/17 00:52:00;;;;;;;33.47;18.47;;;;;;;;;;4994810;28;20516;-46
2023/02/17 00:54:27;;;;;;;36.30;19.87;;;;;;;;;;4994759;28;20423;-46
2023/02/17 00:56:53;;;;;;;30.30;18.63;;;;;;;;;;4997403;28;20435;-48
2023/02/17 00:59:19;;;;;;;35.10;18.10;;;;;;;;;;4994528;28;20787;-46
2023/02/17 01:01:45;;;;;;;27.73;17.50;;;;;;;;;;4994686;28;20412;-47
2023/02/17 01:04:11;;;;;;;27.17;17.47;;;;;;;;;;4994454;28;20423;-48
2023/02/17 01:06:38;;;;;;;33.73;18.47;;;;;;;;;;4994722;28;20400;-48
2023/02/17 01:09:05;;;;;;;27.40;17.40;;;;;;;;;;4993864;28;20434;-46
2023/02/17 01:11:32;;;;;;;28.20;18.03;;;;;;;;;;4993859;28;20473;-46
2023/02/17 01:13:58;;;;;;;31.30;17.47;;;;;;;;;;4994327;28;20538;-46
2023/02/17 01:16:28;;;;;;;32.03;18.20;;;;;;;;;;4994499;28;20561;-48
2023/02/17 01:18:54;;;;;;;23.43;16.90;;;;;;;;;;4989741;28;20431;-46
2023/02/17 01:21:21;;;;;;;33.50;18.10;;;;;;;;;;4997779;28;20411;-46
2023/02/17 01:23:51;;;;;;;26.80;18.07;;;;;;;;;;4994207;28;20419;-46
2023/02/17 01:26:18;;;;;;;25.87;17.17;;;;;;;;;;4996789;28;20415;-47
2023/02/17 01:28:45;;;;;;;27.87;17.70;;;;;;;;;;4993530;28;20777;-46
2023/02/17 01:31:11;;;;;;;27.57;16.30;;;;;;;;;;4993509;28;20477;-44
2023/02/17 01:33:38;;;;;;;27.67;16.73;;;;;;;;;;4994293;28;20429;-44
2023/02/17 01:36:07;;;;;;;25.83;18.03;;;;;;;;;;4993872;28;20481;-44
2023/02/17 01:38:34;;;;;;;29.87;17.23;;;;;;;;;;4997186;28;20515;-45
2023/02/17 01:41:00;;;;;;;25.63;18.23;;;;;;;;;;4993860;28;20444;-44
2023/02/17 01:43:26;;;;;;;25.80;17.97;;;;;;;;;;4993766;28;20507;-44
2023/02/17 01:46:02;;;;;;;28.33;17.67;;;;;;;;;;4993678;28;20435;-44
2023/02/17 01:48:29;;;;;;;28.60;17.00;;;;;;;;;;4993531;28;20400;-44
2023/02/17 01:50:59;;;;;;;27.70;17.40;;;;;;;;;;4993619;28;20434;-44
2023/02/17 01:53:28;;;;;;;34.33;19.83;;;;;;;;;;4993843;28;20408;-45
2023/02/17 01:55:55;;;;;;;28.20;17.70;;;;;;;;;;4993550;28;20828;-45
2023/02/17 01:58:22;;;;;;;27.30;17.77;;;;;;;;;;4992940;28;20771;-45
2023/02/17 02:00:49;;;;;;;29.30;17.57;;;;;;;;;;4993079;28;20519;-44
2023/02/17 02:03:15;;;;;;;29.37;18.70;;;;;;;;;;4985271;28;20408;-45
2023/02/17 02:05:42;;;;;;;29.13;17.50;;;;;;;;;;4992860;28;20777;-45
2023/02/17 02:08:08;;;;;;;30.10;19.80;;;;;;;;;;4991607;28;20419;-44
2023/02/17 02:10:34;;;;;;;29.30;20.00;;;;;;;;;;4993086;28;20424;-44
2023/02/17 02:13:00;;;;;;;26.13;17.50;;;;;;;;;;4998001;28;20837;-44
2023/02/17 02:15:29;;;;;;;26.73;17.47;;;;;;;;;;4993167;28;20482;-44
2023/02/17 02:17:54;;;;;;;28.77;19.13;;;;;;;;;;4992656;28;20423;-44
2023/02/17 02:20:39;;;;;;;23.07;17.23;;;;;;;;;;4993260;28;20428;-44
2023/02/17 02:23:14;;;;;;;25.43;17.97;;;;;;;;;;4992450;28;20501;-45
2023/02/17 02:25:50;;;;;;;25.60;16.80;;;;;;;;;;4992557;28;20412;-44
2023/02/17 02:28:19;;;;;;;30.20;17.63;;;;;;;;;;4984804;28;20445;-44
2023/02/17 02:30:50;;;;;;;28.67;18.33;;;;;;;;;;4993341;28;20518;-45
2023/02/17 02:33:31;;;;;;;34.70;18.67;;;;;;;;;;4985398;28;20514;-45
2023/02/17 02:36:13;;;;;;;26.37;18.43;;;;;;;;;;4990335;28;20510;-44
2023/02/17 02:38:48;;;;;;;32.37;19.23;;;;;;;;;;4987958;28;20419;-45
2023/02/17 02:41:32;;;;;;;31.23;17.40;;;;;;;;;;4992889;28;20510;-45
2023/02/17 02:43:58;;;;;;;29.27;18.27;;;;;;;;;;4992591;28;20420;-45
2023/02/17 02:46:24;;;;;;;23.97;15.60;;;;;;;;;;4992598;28;21050;-45
2023/02/17 02:48:50;;;;;;;25.30;17.40;;;;;;;;;;4992095;28;20411;-45
2023/02/17 02:51:20;;;;;;;26.20;16.23;;;;;;;;;;4997802;28;20496;-45
2023/02/17 02:53:57;;;;;;;22.87;16.43;;;;;;;;;;4996387;28;20900;-45
2023/02/17 02:56:55;;;;;;;23.90;16.07;;;;;;;;;;4988365;28;20459;-44
2023/02/17 02:59:24;;;;;;;19.57;15.07;;;;;;;;;;4990511;28;20920;-45
2023/02/17 03:01:56;;;;;;;18.60;14.93;;;;;;;;;;4992406;28;20444;-44
2023/02/17 03:04:30;;;;;;;22.20;15.50;;;;;;;;;;4992460;28;20423;-45
2023/02/17 03:07:00;;;;;;;20.60;15.37;;;;;;;;;;4992164;28;20461;-45
2023/02/17 03:09:26;;;;;;;21.43;14.03;;;;;;;;;;4991460;28;20431;-44
2023/02/17 03:11:54;;;;;;;22.50;14.67;;;;;;;;;;4992457;28;20560;-45
2023/02/17 03:14:21;;;;;;;23.67;14.93;;;;;;;;;;4992634;28;20415;-45
2023/02/17 03:16:47;;;;;;;21.00;15.33;;;;;;;;;;4992869;28;20412;-48
2023/02/17 03:19:14;;;;;;;20.83;14.30;;;;;;;;;;4991552;28;20432;-48
2023/02/17 03:21:58;;;;;;;20.30;14.47;;;;;;;;;;4992475;28;20425;-47
2023/02/17 03:24:24;;;;;;;19.60;14.33;;;;;;;;;;4985836;28;20422;-47
2023/02/17 03:26:50;;;;;;;20.03;13.77;;;;;;;;;;4992156;28;20498;-46
2023/02/17 03:29:16;;;;;;;19.03;14.30;;;;;;;;;;4991536;28;20468;-47
2023/02/17 03:31:42;;;;;;;23.03;14.13;;;;;;;;;;4991847;28;20459;-45
2023/02/17 03:34:09;;;;;;;17.73;13.07;;;;;;;;;;4992244;28;21052;-47
2023/02/17 03:36:34;;;;;;;19.63;11.70;;;;;;;;;;4992110;28;20435;-48
2023/02/17 03:39:01;;;;;;;14.73;12.20;;;;;;;;;;4991480;28;20467;-47
2023/02/17 03:41:26;;;;;;;18.47;12.17;;;;;;;;;;4992325;28;20439;-48
2023/02/17 03:43:52;;;;;;;19.03;12.93;;;;;;;;;;4992136;28;20408;-47
2023/02/17 03:46:18;;;;;;;18.67;11.23;;;;;;;;;;4992100;28;20491;-47
2023/02/17 03:48:45;;;;;;;20.40;12.70;;;;;;;;;;4991447;28;20408;-47
2023/02/17 03:51:11;;;;;;;15.87;12.07;;;;;;;;;;4992299;28;20455;-47
2023/02/17 03:53:37;;;;;;;15.77;12.53;;;;;;;;;;4992376;28;20415;-49
2023/02/17 03:56:03;;;;;;;16.30;12.47;;;;;;;;;;4992116;28;20419;-45
2023/02/17 03:58:29;;;;;;;14.50;12.20;;;;;;;;;;4991306;28;20400;-47
2023/02/17 04:00:55;;;;;;;14.97;12.20;;;;;;;;;;4991643;28;20794;-46
2023/02/17 04:03:21;;;;;;;16.80;11.03;;;;;;;;;;4991860;28;20412;-45
2023/02/17 04:05:47;;;;;;;14.63;11.13;;;;;;;;;;4992090;28;20412;-47
2023/02/17 04:08:13;;;;;;;15.10;11.37;;;;;;;;;;4990540;28;20438;-47
2023/02/17 04:10:38;;;;;;;15.00;11.80;;;;;;;;;;4992032;28;20424;-47
2023/02/17 04:13:04;;;;;;;13.97;10.53;;;;;;;;;;4991996;28;20468;-47
2023/02/17 04:15:30;;;;;;;13.93;10.60;;;;;;;;;;4991926;28;20407;-45
2023/02/17 04:17:56;;;;;;;14.87;11.50;;;;;;;;;;4991044;28;20932;-46
2023/02/17 04:20:22;;;;;;;20.77;12.80;;;;;;;;;;4992322;28;20463;-45
2023/02/17 04:22:48;;;;;;;15.47;11.30;;;;;;;;;;4991940;28;20412;-45
2023/02/17 04:25:14;;;;;;;13.37;11.50;;;;;;;;;;4992077;28;20423;-45
2023/02/17 04:27:40;;;;;;;14.93;11.20;;;;;;;;;;4991324;28;20412;-47
2023/02/17 04:30:07;;;;;;;15.70;10.70;;;;;;;;;;4990670;28;20618;-48
2023/02/17 04:32:32;;;;;;;12.47;9.60;;;;;;;;;;4991971;28;20495;-47
2023/02/17 04:34:58;;;;;;;12.57;10.60;;;;;;;;;;4991993;28;20451;-47
2023/02/17 04:37:24;;;;;;;12.60;10.50;;;;;;;;;;4991731;28;20408;-47
2023/02/17 04:39:50;;;;;;;14.73;11.07;;;;;;;;;;4991461;28;20427;-47
2023/02/17 04:42:16;;;;;;;12.20;9.90;;;;;;;;;;4992065;28;20444;-47
2023/02/17 04:44:42;;;;;;;14.80;10.33;;;;;;;;;;4991913;28;20407;-48
2023/02/17 04:47:08;;;;;;;14.30;10.40;;;;;;;;;;4993221;28;20408;-47
2023/02/17 04:49:34;;;;;;;12.00;10.27;;;;;;;;;;4994549;28;20787;-45
2023/02/17 04:52:00;;;;;;;12.47;9.87;;;;;;;;;;4995184;28;20553;-48
2023/02/17 04:54:26;;;;;;;10.67;9.37;;;;;;;;;;4995312;28;20442;-47
2023/02/17 04:56:52;;;;;;;12.60;10.47;;;;;;;;;;4995383;28;20413;-48
2023/02/17 05:02:21;;;;;;;12.47;9.03;;;;;;;;;;4993923;28;20431;-46
2023/02/17 05:04:47;;;;;;;12.80;9.80;;;;;;;;;;4995168;28;20412;-45
2023/02/17 05:07:13;;;;;;;14.23;10.03;;;;;;;;;;4994835;28;20401;-45
2023/02/17 05:09:40;;;;;;;12.03;10.00;;;;;;;;;;4994210;28;20671;-47
2023/02/17 05:12:06;;;;;;;12.30;9.47;;;;;;;;;;4994850;28;20783;-48
2023/02/17 05:14:32;;;;;;;12.27;8.90;;;;;;;;;;4994831;28;20408;-46
2023/02/17 05:16:58;;;;;;;15.13;11.03;;;;;;;;;;4994535;28;20552;-45
2023/02/17 05:19:24;;;;;;;12.67;10.57;;;;;;;;;;4993733;28;20990;-48
2023/02/17 05:21:50;;;;;;;11.53;10.30;;;;;;;;;;4994548;28;20900;-48
2023/02/17 05:24:16;;;;;;;13.50;10.27;;;;;;;;;;4993680;28;20936;-46
2023/02/17 05:26:43;;;;;;;13.20;10.73;;;;;;;;;;4994765;28;20412;-46
2023/02/17 05:29:08;;;;;;;12.53;9.60;;;;;;;;;;4993677;28;20447;-49
2023/02/17 05:31:34;;;;;;;11.83;9.70;;;;;;;;;;4992560;28;20472;-46
2023/02/17 05:34:00;;;;;;;17.43;10.30;;;;;;;;;;5003562;28;20504;-47
2023/02/17 05:36:26;;;;;;;14.27;10.83;;;;;;;;;;4994452;28;20777;-46
2023/02/17 05:38:52;;;;;;;15.80;11.20;;;;;;;;;;4997061;28;20487;-48
2023/02/17 05:41:19;;;;;;;13.87;10.27;;;;;;;;;;4994542;28;20500;-47
2023/02/17 05:43:45;;;;;;;17.90;11.37;;;;;;;;;;4994350;28;20427;-48
2023/02/17 05:46:11;;;;;;;14.37;11.23;;;;;;;;;;4994155;28;20459;-46
2023/02/17 05:48:37;;;;;;;12.40;10.00;;;;;;;;;;4993368;28;20425;-47
2023/02/17 05:51:03;;;;;;;15.77;10.23;;;;;;;;;;4993880;28;20439;-45
2023/02/17 05:53:29;;;;;;;15.27;10.53;;;;;;;;;;4994158;28;20405;-45
2023/02/17 05:55:55;;;;;;;16.13;10.57;;;;;;;;;;4994033;28;20408;-46
2023/02/17 05:58:21;;;;;;;13.60;10.80;;;;;;;;;;4992943;28;20923;-48
2023/02/17 06:00:47;;;;;;;13.43;10.73;;;;;;;;;;4993551;28;20836;-47
2023/02/17 06:03:13;;;;;;;14.60;11.00;;;;;;;;;;4993796;28;20917;-47
2023/02/17 06:05:39;;;;;;;13.80;12.13;;;;;;;;;;4993851;28;20456;-47
2023/02/17 06:08:05;;;;;;;13.73;11.40;;;;;;;;;;4993158;28;20416;-48
2023/02/17 06:10:31;;;;;;;13.60;11.00;;;;;;;;;;4993910;28;20431;-47
2023/02/17 06:12:57;;;;;;;19.10;12.17;;;;;;;;;;4993583;28;20472;-47
2023/02/17 06:15:23;;;;;;;14.70;11.60;;;;;;;;;;4993469;28;20408;-47
2023/02/17 06:17:49;;;;;;;14.30;10.60;;;;;;;;;;4991489;28;20478;-47
2023/02/17 06:20:15;;;;;;;16.43;11.80;;;;;;;;;;4996504;28;20432;-46
2023/02/17 06:22:42;;;;;;;16.30;11.80;;;;;;;;;;5000123;28;20502;-45
2023/02/17 06:25:08;;;;;;;15.10;11.17;;;;;;;;;;4994418;28;20824;-46
2023/02/17 06:27:35;;;;;;;15.00;10.90;;;;;;;;;;4993491;28;20785;-47
2023/02/17 06:30:01;;;;;;;14.57;11.70;;;;;;;;;;4992507;28;20443;-45
2023/02/17 06:32:27;;;;;;;15.40;12.23;;;;;;;;;;4992815;28;20459;-47
2023/02/17 06:34:53;;;;;;;14.10;10.60;;;;;;;;;;4993314;28;20790;-47
2023/02/17 06:37:19;;;;;;;20.50;12.47;;;;;;;;;;4993764;28;20408;-46
2023/02/17 06:39:45;;;;;;;13.80;11.10;;;;;;;;;;4992688;28;20784;-46
2023/02/17 06:42:11;;;;;;;14.50;11.50;;;;;;;;;;4993540;28;20416;-45
2023/02/17 06:44:37;;;;;;;15.90;11.73;;;;;;;;;;4991773;28;20931;-44
2023/02/17 06:47:03;;;;;;;13.20;11.13;;;;;;;;;;4992862;28;20428;-44
2023/02/17 06:49:29;;;;;;;13.90;10.57;;;;;;;;;;4992069;28;20444;-44
2023/02/17 06:51:55;;;;;;;16.17;11.30;;;;;;;;;;4992632;28;20455;-44
2023/02/17 06:54:21;;;;;;;13.17;11.40;;;;;;;;;;4992839;28;20416;-44
2023/02/17 06:56:47;;;;;;;13.33;10.83;;;;;;;;;;4992736;28;20413;-44
2023/02/17 06:59:13;;;;;;;11.50;10.30;;;;;;;;;;4991599;28;20435;-44
2023/02/17 07:01:39;;;;;;;18.07;11.70;;;;;;;;;;4992454;28;20463;-44
2023/02/17 07:04:05;;;;;;;14.87;11.87;;;;;;;;;;4992442;28;20904;-44
2023/02/17 07:06:31;;;;;;;15.20;11.20;;;;;;;;;;4992498;28;20431;-45
2023/02/17 07:08:57;;;;;;;15.43;11.63;;;;;;;;;;4992170;28;22155;-45
2023/02/17 07:11:23;;;;;;;15.33;11.53;;;;;;;;;;4992228;28;20451;-45
2023/02/17 07:13:49;;;;;;;14.20;11.20;;;;;;;;;;4992731;28;20788;-45
2023/02/17 07:16:15;;;;;;;13.20;10.03;;;;;;;;;;4993139;28;20407;-47
2023/02/17 07:18:42;;;;;;;17.80;11.90;;;;;;;;;;4992425;28;20896;-46
2023/02/17 07:21:09;;;;;;;15.60;12.37;;;;;;;;;;4992688;28;20444;-47
2023/02/17 07:23:37;;;;;;;18.23;12.20;;;;;;;;;;4992749;28;20446;-45
2023/02/17 07:26:04;;;;;;;21.73;14.20;;;;;;;;;;4992544;28;20494;-45
2023/02/17 07:28:30;;;;;;;17.47;12.53;;;;;;;;;;4992129;28;20874;-47
2023/02/17 07:30:56;;;;;;;17.40;11.63;;;;;;;;;;4990961;28;20436;-48
2023/02/17 07:33:22;;;;;;;17.40;12.17;;;;;;;;;;4991964;28;20450;-43
2023/02/17 07:35:48;;;;;;;19.10;11.77;;;;;;;;;;4991666;28;20424;-48
2023/02/17 07:38:14;;;;;;;14.57;11.30;;;;;;;;;;4991080;28;20416;-43
2023/02/17 07:40:40;;;;;;;19.40;12.80;;;;;;;;;;4991256;28;20450;-44
2023/02/17 07:43:06;;;;;;;20.20;12.37;;;;;;;;;;4991887;28;20416;-42
2023/02/17 07:45:32;;;;;;;17.53;13.20;;;;;;;;;;4991847;28;20507;-43
2023/02/17 07:47:58;;;;;;;17.27;12.20;;;;;;;;;;4990922;28;20420;-45
2023/02/17 07:50:24;;;;;;;20.80;14.30;;;;;;;;;;4991177;28;20522;-44
2023/02/17 07:52:50;;;;;;;19.70;13.53;;;;;;;;;;4991365;28;20460;-44
2023/02/17 07:55:16;;;;;;;19.93;13.40;;;;;;;;;;4994270;28;20416;-44
2023/02/17 07:57:42;;;;;;;18.87;13.03;;;;;;;;;;4992009;28;20845;-44
2023/02/17 08:00:08;;;;;;;15.60;12.60;;;;;;;;;;4991168;28;20440;-44
2023/02/17 08:02:34;;;;;;;16.70;12.17;;;;;;;;;;4991905;28;20408;-44
2023/02/17 08:05:00;;;;;;;18.20;12.37;;;;;;;;;;4992117;28;20490;-44
2023/02/17 08:07:26;;;;;;;16.60;11.83;;;;;;;;;;4992388;28;20419;-44
2023/02/17 08:15:21;;;;;;;15.73;11.47;;;;;;;;;;4985036;28;20787;-44
2023/02/17 08:17:47;;;;;;;14.90;10.57;;;;;;;;;;4991530;28;20396;-44
2023/02/17 08:20:14;;;;;;;15.97;10.30;;;;;;;;;;4991253;28;20412;-45
2023/02/17 08:22:40;;;;;;;21.27;10.50;;;;;;;;;;4994851;28;20498;-44
2023/02/17 08:25:06;;;;;;;12.60;9.63;;;;;;;;;;4995227;28;20412;-44
2023/02/17 08:27:33;;;;;;;14.30;11.00;;;;;;;;;;4995564;28;20444;-44
2023/02/17 08:29:59;;;;;;;14.57;9.60;;;;;;;;;;4994595;28;20995;-44
2023/02/17 08:32:25;;;;;;;13.83;10.33;;;;;;;;;;4994885;28;20550;-44
2023/02/17 08:34:54;;;;;;;12.20;9.93;;;;;;;;;;5000459;28;20812;-44
2023/02/17 08:37:20;;;;;;;13.70;10.20;;;;;;;;;;4995295;28;20787;-44
2023/02/17 08:39:46;;;;;;;12.63;10.30;;;;;;;;;;4995780;28;20435;-44
2023/02/17 08:42:12;;;;;;;11.07;8.50;;;;;;;;;;4994867;28;20839;-44
2023/02/17 08:44:38;;;;;;;10.80;8.50;;;;;;;;;;4994983;28;20415;-44
2023/02/17 08:47:05;;;;;;;13.97;9.77;;;;;;;;;;4994950;28;20502;-44
2023/02/17 08:49:31;;;;;;;12.83;9.67;;;;;;;;;;4994139;28;20435;-44
2023/02/17 08:51:58;;;;;;;13.30;9.47;;;;;;;;;;5002985;28;20458;-44
2023/02/17 08:54:24;;;;;;;13.83;9.77;;;;;;;;;;4994917;28;20777;-44
2023/02/17 08:56:50;;;;;;;14.10;10.77;;;;;;;;;;4994926;28;20495;-44
2023/02/17 08:59:16;;;;;;;12.17;9.70;;;;;;;;;;4994166;28;20439;-44
2023/02/17 09:01:42;;;;;;;12.67;9.20;;;;;;;;;;4994855;28;20426;-44
2023/02/17 09:04:09;;;;;;;11.73;8.63;;;;;;;;;;4994438;28;20876;-44
2023/02/17 09:06:38;;;;;;;11.07;8.47;;;;;;;;;;4994694;28;20900;-44
2023/02/17 09:09:04;;;;;;;12.00;7.83;;;;;;;;;;4993896;28;20538;-44
2023/02/17 09:11:31;;;;;;;10.37;8.00;;;;;;;;;;4994427;28;20481;-44
2023/02/17 09:13:57;;;;;;;12.80;7.93;;;;;;;;;;4994449;28;20560;-44
2023/02/17 09:16:23;;;;;;;11.77;7.30;;;;;;;;;;4995182;28;20423;-44
2023/02/17 09:18:50;;;;;;;10.60;8.10;;;;;;;;;;4993445;28;20791;-44
2023/02/17 09:21:16;;;;;;;11.07;8.33;;;;;;;;;;4994564;28;20789;-44
2023/02/17 09:23:42;;;;;;;9.50;7.20;;;;;;;;;;4994137;28;20931;-44
2023/02/17 09:26:09;;;;;;;11.20;8.40;;;;;;;;;;4994297;28;20412;-44
2023/02/17 09:28:36;;;;;;;8.50;7.60;;;;;;;;;;4993701;28;20403;-44
2023/02/17 09:31:11;;;;;;;9.00;7.00;;;;;;;;;;4993745;28;20433;-44
2023/02/17 09:33:37;;;;;;;8.70;7.80;;;;;;;;;;4993373;28;20520;-44
2023/02/17 09:36:04;;;;;;;9.70;7.30;;;;;;;;;;4994125;28;20431;-44
2023/02/17 09:38:30;;;;;;;11.17;7.20;;;;;;;;;;4993052;28;20406;-44
2023/02/17 09:40:59;;;;;;;15.20;7.50;;;;;;;;;;4992788;28;20438;-44
2023/02/17 09:43:28;;;;;;;10.93;7.30;;;;;;;;;;4993823;28;20774;-44
2023/02/17 09:45:56;;;;;;;10.77;6.63;;;;;;;;;;4993763;28;20425;-44
2023/02/17 09:48:26;;;;;;;9.87;6.90;;;;;;;;;;4993256;28;20916;-44
2023/02/17 09:50:58;;;;;;;9.13;7.27;;;;;;;;;;4994120;28;20541;-44
2023/02/17 09:53:42;;;;;;;9.07;6.27;;;;;;;;;;4993618;28;21016;-44
2023/02/17 09:56:10;;;;;;;10.50;7.40;;;;;;;;;;4993602;28;20553;-44
2023/02/17 09:58:36;;;;;;;8.37;6.37;;;;;;;;;;4993232;28;20493;-44
2023/02/17 10:01:04;;;;;;;8.00;6.27;;;;;;;;;;4992078;28;20485;-44
2023/02/17 10:03:44;;;;;;;9.07;5.50;;;;;;;;;;4993457;28;20424;-44
2023/02/17 10:06:16;;;;;;;9.20;6.63;;;;;;;;;;4993593;28;20425;-44
2023/02/17 10:09:03;;;;;;;8.13;6.20;;;;;;;;;;4992613;28;20423;-44
2023/02/17 10:11:32;;;;;;;9.93;6.27;;;;;;;;;;4987618;28;20556;-44
2023/02/17 10:14:00;;;;;;;7.33;6.50;;;;;;;;;;4993144;28;20424;-44
2023/02/17 10:16:29;;;;;;;10.87;6.67;;;;;;;;;;4993478;28;20420;-44
2023/02/17 10:19:01;;;;;;;8.90;6.13;;;;;;;;;;4992451;28;20418;-44
2023/02/17 10:21:30;;;;;;;11.37;6.37;;;;;;;;;;4993578;28;20423;-44
2023/02/17 10:23:56;;;;;;;8.83;6.07;;;;;;;;;;4992992;28;20789;-44
2023/02/17 10:26:28;;;;;;;9.67;6.07;;;;;;;;;;4993368;28;20412;-45
2023/02/17 10:29:03;;;;;;;8.57;6.03;;;;;;;;;;4992369;28;20501;-44
2023/02/17 10:31:44;;;;;;;9.70;5.53;;;;;;;;;;4992914;28;20523;-44
2023/02/17 10:34:23;;;;;;;6.47;5.80;;;;;;;;;;4992777;28;20417;-44
2023/02/17 10:36:52;;;;;;;9.00;5.83;;;;;;;;;;4993061;28;20408;-44
2023/02/17 10:39:36;;;;;;;5.90;5.10;;;;;;;;;;4992141;28;20437;-44
2023/02/17 10:42:03;;;;;;;7.90;6.60;;;;;;;;;;4992773;28;20449;-44
2023/02/17 10:44:30;;;;;;;11.60;5.60;;;;;;;;;;4992086;28;20906;-44
2023/02/17 10:46:57;;;;;;;10.83;5.57;;;;;;;;;;4998770;28;20491;-44
2023/02/17 10:49:28;;;;;;;10.43;5.53;;;;;;;;;;4972854;28;20470;-44
2023/02/17 10:51:54;;;;;;;5.97;5.33;;;;;;;;;;4973899;28;20454;-44
2023/02/17 10:54:32;;;;;;;7.23;5.63;;;;;;;;;;4992689;28;20404;-44
2023/02/17 10:57:00;;;;;;;6.27;5.50;;;;;;;;;;4992361;28;20468;-44
2023/02/17 10:59:34;;;;;;;7.77;5.37;;;;;;;;;;4993593;28;20441;-44
2023/02/17 11:02:19;;;;;;;6.40;5.03;;;;;;;;;;4993140;28;20935;-44
2023/02/17 11:04:50;;;;;;;7.53;5.80;;;;;;;;;;4992201;28;20501;-44
2023/02/17 11:07:18;;;;;;;6.53;5.83;;;;;;;;;;4992129;28;20428;-44
2023/02/17 11:09:51;;;;;;;8.50;5.47;;;;;;;;;;4990163;28;20438;-44
2023/02/17 11:12:21;;;;;;;7.47;5.30;;;;;;;;;;4991280;28;21161;-44
2023/02/17 11:14:52;;;;;;;9.30;5.40;;;;;;;;;;4992267;28;20729;-44
2023/02/17 11:17:37;;;;;;;5.77;5.17;;;;;;;;;;4989904;28;20758;-44
2023/02/17 11:20:27;;;;;;;6.30;5.60;;;;;;;;;;4972248;28;20429;-44
2023/02/17 11:23:23;;;;;;;7.83;5.20;;;;;;;;;;4973720;28;20414;-44
2023/02/17 11:26:15;;;;;;;5.30;4.40;;;;;;;;;;4968134;28;20431;-44
2023/02/17 11:28:41;;;;;;;5.53;4.93;;;;;;;;;;4971224;28;20796;-45
2023/02/17 11:31:08;;;;;;;7.23;5.13;;;;;;;;;;4972417;28;20406;-44
2023/02/17 11:33:34;;;;;;;4.33;3.93;;;;;;;;;;4972933;28;20411;-45
2023/02/17 11:36:00;;;;;;;10.00;5.30;;;;;;;;;;4971526;28;20408;-44
2023/02/17 11:38:27;;;;;;;7.50;4.97;;;;;;;;;;4972145;28;20559;-44
2023/02/17 11:40:56;;;;;;;6.20;4.50;;;;;;;;;;4972910;28;20534;-44
2023/02/17 11:43:23;;;;;;;4.70;3.70;;;;;;;;;;4972663;28;20423;-44
2023/02/17 11:46:12;;;;;;;4.77;4.00;;;;;;;;;;4980876;28;20440;-44
2023/02/17 11:48:56;;;;;;;5.07;4.07;;;;;;;;;;4985065;28;20478;-44
2023/02/17 11:51:31;;;;;;;6.87;3.93;;;;;;;;;;4985261;28;20410;-44
2023/02/17 11:54:07;;;;;;;4.77;3.60;;;;;;;;;;4992237;28;20481;-44
2023/02/17 11:56:38;;;;;;;5.57;3.70;;;;;;;;;;4993465;28;20404;-44
2023/02/17 11:59:14;;;;;;;6.30;4.67;;;;;;;;;;4995195;28;20436;-44
2023/02/17 12:01:59;;;;;;;4.60;3.80;;;;;;;;;;4996069;28;20452;-44
2023/02/17 12:04:48;;;;;;;5.23;4.20;;;;;;;;;;4989694;28;20447;-44
2023/02/17 12:07:29;;;;;;;7.97;3.20;;;;;;;;;;4995910;28;20398;-44
2023/02/17 12:10:03;;;;;;;6.60;3.53;;;;;;;;;;4992576;28;21017;-44
2023/02/17 12:12:29;;;;;;;5.30;4.10;;;;;;;;;;4995878;28;20451;-44
2023/02/17 12:14:55;;;;;;;4.90;3.60;;;;;;;;;;4995712;28;20412;-44
2023/02/17 12:17:30;;;;;;;4.07;3.60;;;;;;;;;;4982381;28;20417;-44
2023/02/17 12:20:06;;;;;;;5.70;4.47;;;;;;;;;;4975685;28;20522;-44
2023/02/17 12:22:50;;;;;;;7.57;3.90;;;;;;;;;;4976306;28;20416;-44
2023/02/17 12:25:22;;;;;;;4.97;3.20;;;;;;;;;;4976255;28;20423;-43
2023/02/17 12:28:05;;;;;;;5.37;3.87;;;;;;;;;;4976406;28;20451;-44
2023/02/17 12:30:34;;;;;;;5.60;3.70;;;;;;;;;;4975422;28;20437;-44
2023/02/17 12:33:18;;;;;;;6.57;4.27;;;;;;;;;;4975895;28;20491;-44
2023/02/17 12:36:05;;;;;;;4.27;3.80;;;;;;;;;;4976084;28;20408;-44
2023/02/17 12:38:33;;;;;;;4.63;4.20;;;;;;;;;;4975144;28;20434;-44
2023/02/17 12:41:07;;;;;;;6.30;3.60;;;;;;;;;;4975858;28;20424;-44
2023/02/17 12:43:36;;;;;;;8.07;4.10;;;;;;;;;;4975982;28;20444;-44
2023/02/17 12:46:04;;;;;;;8.47;3.83;;;;;;;;;;4993211;28;20418;-44
2023/02/17 12:48:30;;;;;;;3.87;3.43;;;;;;;;;;4993373;28;20419;-44
2023/02/17 12:50:59;;;;;;;4.10;3.70;;;;;;;;;;4995173;28;20515;-44
2023/02/17 12:53:51;;;;;;;4.67;3.30;;;;;;;;;;4994978;28;20463;-44
2023/02/17 12:56:30;;;;;;;5.97;3.37;;;;;;;;;;4989011;28;20851;-44
2023/02/17 12:58:58;;;;;;;4.90;3.57;;;;;;;;;;4994159;28;20462;-44
2023/02/17 13:01:25;;;;;;;4.13;3.20;;;;;;;;;;4995497;28;20480;-44
2023/02/17 13:03:52;;;;;;;4.80;3.40;;;;;;;;;;4991910;28;20416;-44
2023/02/17 13:06:38;;;;;;;3.43;2.80;;;;;;;;;;4975450;28;20415;-44
2023/02/17 13:09:04;;;;;;;6.10;3.80;;;;;;;;;;4973672;28;20494;-44
2023/02/17 13:11:32;;;;;;;3.20;2.80;;;;;;;;;;4975310;28;21258;-44
2023/02/17 13:14:09;;;;;;;3.73;3.37;;;;;;;;;;4991952;28;20784;-44
2023/02/17 13:16:45;;;;;;;4.33;3.93;;;;;;;;;;4994783;28;20441;-44
2023/02/17 13:19:13;;;;;;;4.20;3.80;;;;;;;;;;4993906;28;20449;-44
2023/02/17 13:21:48;;;;;;;4.90;3.87;;;;;;;;;;4994383;28;20433;-45
2023/02/17 13:24:30;;;;;;;4.70;3.97;;;;;;;;;;4994519;28;20414;-44
2023/02/17 13:26:56;;;;;;;4.40;3.40;;;;;;;;;;4994529;28;20421;-44
2023/02/17 13:29:25;;;;;;;6.53;3.43;;;;;;;;;;4993579;28;20455;-44
2023/02/17 13:31:54;;;;;;;6.67;3.87;;;;;;;;;;4994356;28;20947;-44
2023/02/17 13:34:40;;;;;;;4.67;4.20;;;;;;;;;;4994093;28;20875;-44
2023/02/17 13:37:17;;;;;;;5.70;3.50;;;;;;;;;;4994125;28;20406;-44
2023/02/17 13:39:44;;;;;;;4.50;3.87;;;;;;;;;;5011487;28;20475;-44
2023/02/17 13:42:25;;;;;;;4.67;4.17;;;;;;;;;;4976940;28;20423;-44
2023/02/17 13:44:51;;;;;;;4.60;4.10;;;;;;;;;;4974375;28;20923;-44
2023/02/17 13:47:28;;;;;;;5.10;3.43;;;;;;;;;;4974610;28;20417;-44
2023/02/17 13:49:58;;;;;;;4.40;4.00;;;;;;;;;;4977748;28;20467;-45
2023/02/17 13:52:25;;;;;;;3.97;3.40;;;;;;;;;;4993340;28;20475;-46
2023/02/17 13:54:52;;;;;;;5.53;4.17;;;;;;;;;;4980646;28;20418;-47
2023/02/17 13:57:36;;;;;;;8.60;4.10;;;;;;;;;;5009083;28;20795;-48
2023/02/17 14:00:06;;;;;;;6.70;4.10;;;;;;;;;;4993673;28;20435;-47
2023/02/17 14:02:32;;;;;;;4.77;4.27;;;;;;;;;;4994466;28;20414;-49
2023/02/17 14:05:00;;;;;;;5.50;5.00;;;;;;;;;;4994300;28;20406;-48
2023/02/17 14:07:26;;;;;;;5.20;4.80;;;;;;;;;;4992854;28;20851;-48
2023/02/17 14:09:53;;;;;;;6.20;5.37;;;;;;;;;;4993170;28;20444;-46
2023/02/17 14:12:22;;;;;;;6.50;5.50;;;;;;;;;;4993879;28;20464;-47
2023/02/17 14:14:48;;;;;;;5.27;4.37;;;;;;;;;;4993445;28;20456;-44
2023/02/17 14:17:30;;;;;;;5.00;4.50;;;;;;;;;;4993704;28;20424;-42
2023/02/17 14:19:57;;;;;;;7.30;4.77;;;;;;;;;;4992530;28;20500;-42
2023/02/17 14:22:27;;;;;;;5.90;3.73;;;;;;;;;;4992485;28;20781;-44
2023/02/17 14:25:07;;;;;;;3.40;3.10;;;;;;;;;;4992951;28;20927;-42
2023/02/17 14:27:45;;;;;;;3.30;3.10;;;;;;;;;;4993421;28;20445;-45
2023/02/17 14:30:14;;;;;;;6.10;3.30;;;;;;;;;;4992407;28;20950;-43
2023/02/17 14:32:40;;;;;;;7.17;3.30;;;;;;;;;;4991204;28;20492;-44
2023/02/17 14:35:06;;;;;;;2.40;2.20;;;;;;;;;;4991996;28;20910;-44
2023/02/17 14:37:35;;;;;;;7.97;4.37;;;;;;;;;;5002191;28;20850;-44
2023/02/17 14:40:01;;;;;;;3.13;2.73;;;;;;;;;;4991067;28;20957;-43
2023/02/17 14:42:27;;;;;;;3.00;2.70;;;;;;;;;;4973506;28;20419;-44
2023/02/17 14:44:53;;;;;;;5.00;4.47;;;;;;;;;;4973190;28;20527;-43